Time;durP1;ratioP1;P1;durP2;ratioP2;P2;SDS_P1;SDS_P2;PMS_P1;PMS_P2;Temp;Humidity;BMP_temperature;BMP_pressure;BME280_temperature;BME280_humidity;BME280_pressure;Samples;Min_cycle;Max_cycle;Signal;HPM_P1;HPM_P2
2023/09/18 00:01:58;;;;;;;8.20;6.43;;;21.20;99.90;;;;;;5056516;28;20179;-48
2023/09/18 00:04:24;;;;;;;7.68;6.40;;;21.20;99.90;;;;;;5056766;28;20180;-48
2023/09/18 00:06:49;;;;;;;6.35;5.78;;;21.20;99.90;;;;;;5056565;28;20219;-46
2023/09/18 00:09:16;;;;;;;7.18;5.97;;;21.20;99.90;;;;;;5056722;28;20660;-49
2023/09/18 00:11:41;;;;;;;6.43;5.82;;;21.20;99.90;;;;;;5056594;28;20176;-50
2023/09/18 00:14:12;;;;;;;6.88;5.80;;;21.20;99.90;;;;;;5056385;28;20702;-47
2023/09/18 00:16:38;;;;;;;6.50;5.90;;;21.20;99.90;;;;;;5056696;28;20179;-50
2023/09/18 00:19:07;;;;;;;7.35;6.47;;;21.20;99.90;;;;;;5056328;28;20267;-46
2023/09/18 00:21:33;;;;;;;7.32;6.55;;;21.10;99.90;;;;;;5056480;28;20704;-46
2023/09/18 00:23:59;;;;;;;8.48;6.57;;;21.10;99.90;;;;;;5056289;28;20625;-47
2023/09/18 00:26:25;;;;;;;7.47;6.07;;;21.10;99.90;;;;;;5056219;28;20210;-46
2023/09/18 00:28:50;;;;;;;8.43;6.10;;;21.10;99.90;;;;;;5056082;28;20176;-46
2023/09/18 00:31:16;;;;;;;6.20;5.60;;;21.10;99.90;;;;;;5056083;28;20179;-50
2023/09/18 00:33:42;;;;;;;6.90;6.13;;;21.10;99.90;;;;;;5056194;28;20180;-47
2023/09/18 00:36:07;;;;;;;7.07;6.38;;;21.10;99.90;;;;;;5056114;28;20186;-47
2023/09/18 00:38:33;;;;;;;8.65;6.03;;;21.00;99.90;;;;;;5056032;28;20175;-47
2023/09/18 00:40:59;;;;;;;8.70;6.65;;;21.00;99.90;;;;;;5055946;28;20171;-46
2023/09/18 00:43:24;;;;;;;8.55;6.47;;;20.90;99.90;;;;;;5055810;28;20182;-48
2023/09/18 00:45:50;;;;;;;6.03;5.30;;;20.90;99.90;;;;;;5054679;28;20552;-48
2023/09/18 00:48:16;;;;;;;7.00;6.30;;;20.90;99.90;;;;;;5055907;28;20183;-50
2023/09/18 00:50:47;;;;;;;6.90;6.20;;;20.80;99.90;;;;;;5055896;28;20172;-46
2023/09/18 00:53:19;;;;;;;6.95;6.25;;;20.80;99.90;;;;;;5055818;28;20175;-45
2023/09/18 00:55:46;;;;;;;6.97;6.00;;;20.80;99.90;;;;;;5055726;28;20175;-45
2023/09/18 00:58:12;;;;;;;7.57;6.35;;;20.70;99.90;;;;;;5055555;28;20182;-46
2023/09/18 01:00:38;;;;;;;6.55;5.68;;;20.80;99.90;;;;;;5055747;28;20179;-46
2023/09/18 01:03:04;;;;;;;6.85;6.10;;;20.90;99.90;;;;;;5055656;28;20556;-46
2023/09/18 01:05:34;;;;;;;7.78;6.40;;;20.90;99.90;;;;;;5055074;28;20211;-46
2023/09/18 01:07:59;;;;;;;7.25;6.47;;;20.90;99.90;;;;;;5055465;28;20179;-47
2023/09/18 01:10:32;;;;;;;6.55;5.95;;;20.80;99.90;;;;;;5055327;28;20255;-46
2023/09/18 01:13:13;;;;;;;8.73;6.10;;;20.80;99.90;;;;;;5054291;28;20210;-46
2023/09/18 01:15:45;;;;;;;7.20;6.22;;;20.80;99.90;;;;;;5055432;28;20175;-48
2023/09/18 01:18:10;;;;;;;8.50;6.53;;;20.80;99.90;;;;;;5055335;28;20175;-49
2023/09/18 01:20:36;;;;;;;10.27;6.72;;;20.80;99.90;;;;;;5055145;28;20584;-48
2023/09/18 01:23:02;;;;;;;6.70;6.00;;;20.80;99.90;;;;;;5055090;28;20178;-47
2023/09/18 01:25:27;;;;;;;8.25;7.00;;;20.80;99.90;;;;;;5054977;28;20278;-47
2023/09/18 01:27:53;;;;;;;7.10;6.10;;;20.80;99.90;;;;;;5055290;28;20180;-46
2023/09/18 01:30:18;;;;;;;6.88;6.18;;;20.80;99.90;;;;;;5055145;28;20561;-46
2023/09/18 01:32:45;;;;;;;6.85;6.05;;;20.80;99.90;;;;;;5055132;28;20624;-50
2023/09/18 01:35:12;;;;;;;7.55;5.78;;;20.70;99.90;;;;;;5055025;28;20175;-45
2023/09/18 01:37:39;;;;;;;6.45;5.82;;;20.70;99.90;;;;;;5055104;28;20179;-45
2023/09/18 01:40:06;;;;;;;7.40;6.28;;;20.70;99.90;;;;;;5055263;28;20179;-47
2023/09/18 01:42:33;;;;;;;6.93;6.18;;;20.70;99.90;;;;;;5054923;28;20533;-50
2023/09/18 01:44:59;;;;;;;8.27;6.43;;;20.70;99.90;;;;;;5054778;28;20209;-46
2023/09/18 01:47:26;;;;;;;7.00;6.30;;;20.70;99.90;;;;;;5054695;28;20717;-50
2023/09/18 01:49:52;;;;;;;8.98;6.50;;;20.70;99.90;;;;;;5054624;28;20211;-49
2023/09/18 01:52:18;;;;;;;9.23;6.78;;;20.80;99.90;;;;;;5054474;28;20211;-46
2023/09/18 01:54:44;;;;;;;6.82;6.13;;;20.80;99.90;;;;;;5054737;28;20568;-50
2023/09/18 01:57:10;;;;;;;7.30;6.45;;;20.80;99.90;;;;;;5054406;28;20259;-45
2023/09/18 01:59:39;;;;;;;7.32;6.00;;;20.80;99.90;;;;;;5054741;28;20258;-46
2023/09/18 02:02:07;;;;;;;9.57;5.95;;;20.80;99.90;;;;;;5054399;28;20229;-47
2023/09/18 02:04:33;;;;;;;6.45;5.57;;;20.80;99.90;;;;;;5054310;28;20233;-49
2023/09/18 02:06:59;;;;;;;6.40;5.72;;;20.70;99.90;;;;;;5054092;28;20210;-46
2023/09/18 02:09:24;;;;;;;7.93;5.75;;;20.80;99.90;;;;;;5054467;28;20267;-49
2023/09/18 02:11:50;;;;;;;5.97;5.38;;;20.80;99.90;;;;;;5054348;28;20583;-47
2023/09/18 02:14:16;;;;;;;7.68;5.97;;;20.80;99.90;;;;;;5054400;28;20171;-50
2023/09/18 02:16:45;;;;;;;6.47;5.88;;;20.80;99.90;;;;;;5053192;28;20183;-50
2023/09/18 02:19:15;;;;;;;7.28;5.50;;;20.80;99.90;;;;;;5054169;28;20167;-51
2023/09/18 02:21:41;;;;;;;6.72;5.80;;;20.70;99.90;;;;;;5052765;28;20513;-46
2023/09/18 02:24:10;;;;;;;6.65;5.55;;;20.60;99.90;;;;;;5054088;28;20208;-45
2023/09/18 02:26:36;;;;;;;8.45;5.80;;;20.60;99.90;;;;;;5053978;28;20195;-48
2023/09/18 02:29:04;;;;;;;6.00;5.50;;;20.70;99.90;;;;;;5053937;28;20179;-51
2023/09/18 02:31:30;;;;;;;6.22;5.57;;;20.70;99.90;;;;;;5053828;28;20176;-46
2023/09/18 02:33:58;;;;;;;6.50;5.60;;;20.60;99.90;;;;;;5053758;28;20187;-46
2023/09/18 02:36:24;;;;;;;7.43;5.63;;;20.50;99.90;;;;;;5052744;28;20201;-47
2023/09/18 02:38:50;;;;;;;7.70;5.82;;;20.60;99.90;;;;;;5053884;28;20700;-50
2023/09/18 02:41:15;;;;;;;8.38;5.70;;;20.60;99.90;;;;;;5053999;28;20579;-46
2023/09/18 02:43:41;;;;;;;6.63;5.22;;;20.60;99.90;;;;;;5053722;28;20206;-50
2023/09/18 02:46:08;;;;;;;6.35;5.10;;;20.60;99.90;;;;;;5053541;28;20668;-50
2023/09/18 02:48:34;;;;;;;8.38;5.40;;;20.50;99.90;;;;;;5053477;28;20597;-50
2023/09/18 02:51:00;;;;;;;6.63;5.45;;;20.50;99.90;;;;;;5053737;28;20207;-51
2023/09/18 02:53:26;;;;;;;7.03;4.78;;;20.50;99.90;;;;;;5053619;28;20182;-46
2023/09/18 02:55:54;;;;;;;5.43;4.93;;;20.50;99.90;;;;;;5053544;28;20183;-49
2023/09/18 02:58:21;;;;;;;9.23;5.00;;;20.50;99.90;;;;;;5053732;28;20167;-51
2023/09/18 03:00:49;;;;;;;5.63;4.63;;;20.50;99.90;;;;;;5053358;28;20569;-49
2023/09/18 03:03:16;;;;;;;5.82;4.40;;;20.30;99.90;;;;;;5053212;28;20217;-50
2023/09/18 03:05:43;;;;;;;7.35;4.50;;;20.30;99.90;;;;;;5053399;28;20221;-47
2023/09/18 03:08:09;;;;;;;5.85;4.88;;;20.30;99.90;;;;;;5053452;28;20191;-46
2023/09/18 03:10:39;;;;;;;5.80;4.25;;;20.30;99.90;;;;;;5053349;28;20175;-49
2023/09/18 03:13:05;;;;;;;6.90;4.75;;;20.30;99.90;;;;;;5053108;28;20540;-47
2023/09/18 03:15:31;;;;;;;6.03;4.10;;;20.30;99.90;;;;;;5053157;28;20187;-47
2023/09/18 03:17:58;;;;;;;6.07;4.40;;;20.20;99.90;;;;;;5053139;28;20632;-51
2023/09/18 03:20:25;;;;;;;4.80;3.95;;;20.30;99.90;;;;;;5053054;28;20272;-50
2023/09/18 03:22:52;;;;;;;5.82;4.20;;;20.30;99.90;;;;;;5053230;28;20186;-47
2023/09/18 03:25:18;;;;;;;4.43;4.00;;;20.20;99.90;;;;;;5053124;28;20206;-46
2023/09/18 03:27:43;;;;;;;5.55;4.43;;;20.20;99.90;;;;;;5056238;28;20183;-46
2023/09/18 03:30:12;;;;;;;6.15;4.20;;;20.20;99.90;;;;;;5059635;28;20179;-47
2023/09/18 03:32:38;;;;;;;6.45;3.97;;;20.20;99.90;;;;;;5059557;28;20207;-46
2023/09/18 03:35:04;;;;;;;4.25;3.50;;;20.10;99.90;;;;;;5059916;28;20662;-47
2023/09/18 03:37:30;;;;;;;5.30;4.13;;;20.00;99.90;;;;;;5059779;28;20178;-48
2023/09/18 03:39:56;;;;;;;6.70;3.70;;;20.00;99.90;;;;;;5059763;28;20175;-49
2023/09/18 03:42:21;;;;;;;7.00;3.78;;;20.00;99.90;;;;;;5059665;28;20585;-46
2023/09/18 03:44:47;;;;;;;6.25;4.22;;;20.10;99.90;;;;;;5059476;28;20258;-46
2023/09/18 03:47:15;;;;;;;5.50;3.65;;;20.00;99.90;;;;;;5059564;28;20266;-45
2023/09/18 03:49:41;;;;;;;3.65;3.25;;;19.90;99.90;;;;;;5059464;28;20229;-45
2023/09/18 03:52:07;;;;;;;4.55;3.47;;;19.90;99.90;;;;;;5059638;28;20176;-45
2023/09/18 03:54:32;;;;;;;6.40;3.67;;;19.90;99.90;;;;;;5059453;28;20177;-45
2023/09/18 03:56:58;;;;;;;6.30;3.80;;;19.90;99.90;;;;;;5059450;28;20732;-45
2023/09/18 03:59:24;;;;;;;4.63;3.25;;;19.90;99.90;;;;;;5059407;28;20172;-49
2023/09/18 04:01:49;;;;;;;6.18;3.55;;;20.00;99.90;;;;;;5059641;28;20666;-46
2023/09/18 04:04:15;;;;;;;4.65;3.40;;;20.00;99.90;;;;;;5059573;28;20258;-47
2023/09/18 04:06:42;;;;;;;4.57;3.05;;;19.90;99.90;;;;;;5059432;28;20206;-45
2023/09/18 04:09:08;;;;;;;5.60;3.10;;;19.90;99.90;;;;;;5059436;28;20175;-48
2023/09/18 04:11:35;;;;;;;5.43;3.00;;;19.90;99.90;;;;;;5059487;28;20176;-46
2023/09/18 04:14:01;;;;;;;4.20;3.10;;;19.90;99.90;;;;;;5059298;28;20168;-45
2023/09/18 04:16:35;;;;;;;3.25;2.95;;;19.80;99.90;;;;;;5059515;28;20183;-49
2023/09/18 04:19:01;;;;;;;4.72;2.97;;;19.90;99.90;;;;;;5059242;28;20636;-46
2023/09/18 04:21:29;;;;;;;3.13;2.83;;;19.80;99.90;;;;;;5059217;28;20175;-47
2023/09/18 04:23:57;;;;;;;4.30;2.80;;;19.60;99.90;;;;;;5059305;28;20209;-47
2023/09/18 04:26:24;;;;;;;5.78;3.03;;;19.70;99.90;;;;;;5058201;28;20203;-48
2023/09/18 04:28:49;;;;;;;5.35;2.92;;;19.70;99.90;;;;;;5057957;28;20606;-46
2023/09/18 04:31:16;;;;;;;5.13;3.30;;;19.70;99.90;;;;;;5058483;28;20259;-46
2023/09/18 04:33:42;;;;;;;3.05;2.80;;;19.70;99.90;;;;;;5059201;28;20636;-48
2023/09/18 04:36:07;;;;;;;4.97;3.05;;;19.70;99.90;;;;;;5058439;28;20194;-46
2023/09/18 04:38:33;;;;;;;4.88;2.75;;;19.70;99.90;;;;;;5058267;28;20175;-46
2023/09/18 04:41:02;;;;;;;5.47;3.10;;;19.60;99.90;;;;;;5055675;28;20264;-46
2023/09/18 04:43:29;;;;;;;4.63;2.70;;;19.60;99.90;;;;;;5055947;28;20171;-49
2023/09/18 04:45:55;;;;;;;4.32;2.63;;;19.60;99.90;;;;;;5056001;28;20215;-45
2023/09/18 04:48:21;;;;;;;4.10;2.38;;;19.50;99.90;;;;;;5055939;28;20186;-48
2023/09/18 04:50:48;;;;;;;6.60;2.97;;;19.50;99.90;;;;;;5055871;28;20179;-47
2023/09/18 04:53:14;;;;;;;3.53;2.60;;;19.40;99.90;;;;;;5055833;28;20266;-46
2023/09/18 04:55:40;;;;;;;2.50;2.30;;;19.40;99.90;;;;;;5055465;28;20640;-45
2023/09/18 04:58:06;;;;;;;2.83;2.40;;;19.40;99.90;;;;;;5055024;28;20190;-49
2023/09/18 05:00:33;;;;;;;3.58;1.98;;;19.40;99.90;;;;;;5055004;28;20183;-47
2023/09/18 05:03:01;;;;;;;3.90;2.38;;;19.40;99.90;;;;;;5054355;28;20168;-46
2023/09/18 05:05:29;;;;;;;3.38;2.40;;;19.40;99.90;;;;;;5055427;28;20257;-47
2023/09/18 05:07:55;;;;;;;4.18;2.72;;;19.40;99.90;;;;;;5055408;28;20179;-48
2023/09/18 05:10:21;;;;;;;4.35;2.65;;;19.40;99.90;;;;;;5054864;28;20525;-48
2023/09/18 05:12:49;;;;;;;4.45;2.40;;;19.30;99.90;;;;;;5055562;28;20186;-46
2023/09/18 05:15:15;;;;;;;5.50;2.40;;;19.30;99.90;;;;;;5055538;28;20182;-46
2023/09/18 05:17:55;;;;;;;3.58;2.60;;;19.40;99.90;;;;;;5055064;28;20548;-47
2023/09/18 05:20:23;;;;;;;7.53;2.60;;;19.40;99.90;;;;;;5055451;28;20218;-48
2023/09/18 05:22:50;;;;;;;3.00;2.45;;;19.30;99.90;;;;;;5055267;28;20172;-48
2023/09/18 05:25:16;;;;;;;2.92;2.20;;;19.30;99.90;;;;;;5055035;28;20908;-47
2023/09/18 05:27:45;;;;;;;2.85;2.38;;;19.20;99.90;;;;;;5055214;28;20190;-52
2023/09/18 05:30:21;;;;;;;3.63;2.30;;;19.20;99.90;;;;;;5055044;28;20532;-50
2023/09/18 05:32:47;;;;;;;2.92;2.10;;;19.30;99.90;;;;;;5055077;28;20171;-48
2023/09/18 05:35:14;;;;;;;3.15;2.30;;;19.20;99.90;;;;;;5054974;28;20628;-50
2023/09/18 05:37:40;;;;;;;3.25;2.00;;;19.20;99.90;;;;;;5054781;28;20168;-46
2023/09/18 05:40:11;;;;;;;3.78;2.20;;;19.10;99.90;;;;;;5055029;28;20183;-49
2023/09/18 05:42:44;;;;;;;2.50;2.10;;;19.10;99.90;;;;;;5054760;28;20555;-51
2023/09/18 05:45:14;;;;;;;5.43;2.30;;;19.10;99.90;;;;;;5054822;28;20199;-50
2023/09/18 05:47:40;;;;;;;3.10;2.00;;;19.10;99.90;;;;;;5054801;28;20629;-49
2023/09/18 05:50:07;;;;;;;4.50;2.10;;;19.00;99.90;;;;;;5052963;28;20182;-46
2023/09/18 05:52:34;;;;;;;3.22;2.45;;;19.10;99.90;;;;;;5053765;28;20167;-52
2023/09/18 05:55:03;;;;;;;4.60;2.10;;;19.10;99.90;;;;;;5054692;28;20176;-46
2023/09/18 05:57:28;;;;;;;3.72;2.35;;;19.10;99.90;;;;;;5054647;28;20171;-47
2023/09/18 05:59:55;;;;;;;3.35;2.38;;;19.10;99.90;;;;;;5054591;28;20232;-52
2023/09/18 06:02:21;;;;;;;3.45;2.25;;;19.10;99.90;;;;;;5054192;28;20176;-50
2023/09/18 06:04:48;;;;;;;3.80;2.78;;;19.10;99.90;;;;;;5054252;28;20183;-47
2023/09/18 06:07:14;;;;;;;3.38;2.60;;;19.00;99.90;;;;;;5054150;28;20525;-51
2023/09/18 06:09:42;;;;;;;2.75;2.28;;;19.00;99.90;;;;;;5052262;28;20632;-48
2023/09/18 06:12:09;;;;;;;3.50;2.03;;;19.00;99.90;;;;;;5054081;28;20180;-51
2023/09/18 06:14:37;;;;;;;3.92;2.55;;;18.90;99.90;;;;;;5053677;28;20183;-51
2023/09/18 06:17:03;;;;;;;5.82;2.75;;;18.90;99.90;;;;;;5054125;28;20228;-47
2023/09/18 06:19:29;;;;;;;3.10;2.80;;;18.80;99.90;;;;;;5053770;28;20705;-51
2023/09/18 06:21:55;;;;;;;4.75;2.80;;;18.90;99.90;;;;;;5054183;28;20182;-50
2023/09/18 06:24:21;;;;;;;4.93;2.88;;;18.90;99.90;;;;;;5054124;28;20175;-46
2023/09/18 06:26:47;;;;;;;3.90;2.90;;;18.90;99.90;;;;;;5053957;28;20214;-47
2023/09/18 06:29:13;;;;;;;6.00;2.55;;;19.00;99.90;;;;;;5053879;28;20611;-50
2023/09/18 06:31:39;;;;;;;5.47;3.10;;;19.00;99.90;;;;;;5053912;28;20286;-52
2023/09/18 06:34:05;;;;;;;6.07;3.10;;;19.00;99.90;;;;;;5053763;28;20641;-50
2023/09/18 06:36:30;;;;;;;5.47;3.10;;;19.00;99.90;;;;;;5053971;28;20175;-46
2023/09/18 06:38:56;;;;;;;5.30;2.80;;;19.10;99.90;;;;;;5053769;28;20254;-46
2023/09/18 06:41:22;;;;;;;5.13;2.83;;;19.00;99.90;;;;;;5053956;28;20215;-48
2023/09/18 06:43:47;;;;;;;3.72;2.50;;;19.00;99.90;;;;;;5053783;28;20186;-52
2023/09/18 06:46:13;;;;;;;3.42;2.53;;;19.00;99.90;;;;;;5053578;28;20595;-50
2023/09/18 06:48:38;;;;;;;3.60;2.30;;;19.00;99.90;;;;;;5052242;28;20184;-50
2023/09/18 06:51:06;;;;;;;3.70;2.53;;;18.90;99.90;;;;;;5053534;28;20599;-48
2023/09/18 06:53:31;;;;;;;2.53;2.33;;;18.90;99.90;;;;;;5053690;28;20183;-50
2023/09/18 06:55:57;;;;;;;5.68;2.35;;;18.80;99.90;;;;;;5053439;28;20514;-52
2023/09/18 06:58:23;;;;;;;5.20;2.58;;;18.80;99.90;;;;;;5053526;28;20699;-48
2023/09/18 07:00:50;;;;;;;4.68;2.50;;;18.90;99.90;;;;;;5053334;28;20661;-49
2023/09/18 07:03:17;;;;;;;4.13;2.90;;;18.90;99.90;;;;;;5052830;28;20182;-47
2023/09/18 07:05:43;;;;;;;3.58;2.50;;;18.80;99.90;;;;;;5053579;28;20206;-51
2023/09/18 07:08:11;;;;;;;3.92;2.60;;;18.80;99.90;;;;;;5053437;28;20179;-50
2023/09/18 07:10:38;;;;;;;3.45;2.40;;;18.80;99.90;;;;;;5053365;28;20175;-51
2023/09/18 07:13:04;;;;;;;3.22;2.30;;;18.80;99.90;;;;;;5053281;28;20183;-51
2023/09/18 07:15:29;;;;;;;4.47;2.47;;;18.90;99.90;;;;;;5053187;28;20184;-48
2023/09/18 07:17:55;;;;;;;4.72;2.33;;;18.80;99.90;;;;;;5053108;28;20206;-49
2023/09/18 07:20:22;;;;;;;3.00;2.70;;;18.70;99.90;;;;;;5051969;28;20227;-49
2023/09/18 07:22:48;;;;;;;4.55;2.80;;;18.70;99.90;;;;;;5053445;28;20545;-49
2023/09/18 07:25:15;;;;;;;6.70;2.78;;;18.70;99.90;;;;;;5053079;28;20202;-52
2023/09/18 07:27:43;;;;;;;5.90;2.80;;;18.90;99.90;;;;;;5053208;28;20183;-49
2023/09/18 07:30:11;;;;;;;6.03;2.65;;;19.10;99.90;;;;;;5051836;28;20182;-50
2023/09/18 07:32:37;;;;;;;4.50;2.58;;;19.30;99.90;;;;;;5053272;28;20259;-52
2023/09/18 07:35:06;;;;;;;5.60;2.80;;;19.30;99.90;;;;;;5053047;28;20171;-52
2023/09/18 07:37:32;;;;;;;4.28;2.50;;;19.40;99.90;;;;;;5053118;28;20266;-50
2023/09/18 07:39:58;;;;;;;3.78;2.53;;;19.60;99.90;;;;;;5053153;28;20597;-47
2023/09/18 07:42:27;;;;;;;3.65;2.80;;;19.70;99.90;;;;;;5052900;28;20218;-50
2023/09/18 07:44:53;;;;;;;4.18;3.00;;;19.70;99.90;;;;;;5052771;28;20183;-48
2023/09/18 07:47:19;;;;;;;3.83;2.83;;;19.80;99.90;;;;;;5053394;28;20215;-46
2023/09/18 07:49:44;;;;;;;6.45;3.30;;;19.80;99.90;;;;;;5053067;28;20256;-48
2023/09/18 07:52:10;;;;;;;6.10;3.13;;;19.70;99.90;;;;;;5052891;28;20175;-51
2023/09/18 07:54:36;;;;;;;7.07;3.35;;;19.70;99.90;;;;;;5052854;28;20179;-49
2023/09/18 07:57:01;;;;;;;7.38;3.42;;;19.60;99.90;;;;;;5052821;28;20191;-52
2023/09/18 07:59:27;;;;;;;5.45;3.20;;;19.70;99.90;;;;;;5051777;28;20180;-50
2023/09/18 08:01:54;;;;;;;4.57;2.97;;;19.60;99.90;;;;;;5052920;28;20229;-48
2023/09/18 08:04:20;;;;;;;4.65;3.13;;;19.60;99.90;;;;;;5052832;28;20274;-50
2023/09/18 08:06:47;;;;;;;4.57;3.30;;;19.60;99.90;;;;;;5051501;28;20235;-49
2023/09/18 08:09:16;;;;;;;6.35;3.30;;;19.60;99.90;;;;;;5052710;28;20233;-49
2023/09/18 08:11:42;;;;;;;7.82;3.45;;;19.60;99.90;;;;;;5052587;28;20171;-50
2023/09/18 08:14:11;;;;;;;5.70;3.42;;;19.70;99.90;;;;;;5053100;28;20182;-52
2023/09/18 08:16:40;;;;;;;5.03;3.25;;;19.70;99.90;;;;;;5056665;28;20184;-46
2023/09/18 08:19:06;;;;;;;6.07;3.45;;;19.50;99.90;;;;;;5056334;28;20178;-50
2023/09/18 08:21:32;;;;;;;5.75;3.42;;;19.50;99.90;;;;;;5056562;28;20210;-48
2023/09/18 08:23:58;;;;;;;7.22;3.72;;;19.50;99.90;;;;;;5056263;28;20182;-51
2023/09/18 08:26:25;;;;;;;6.28;3.58;;;19.60;99.90;;;;;;5056132;28;20552;-49
2023/09/18 08:28:51;;;;;;;4.97;3.65;;;19.70;99.90;;;;;;5056096;28;20321;-46
2023/09/18 08:31:16;;;;;;;8.98;3.88;;;19.70;99.90;;;;;;5056769;28;20631;-49
2023/09/18 08:33:43;;;;;;;9.18;3.88;;;19.70;99.90;;;;;;5056234;28;20175;-48
2023/09/18 08:36:09;;;;;;;5.65;3.63;;;19.70;99.90;;;;;;5056050;28;20179;-51
2023/09/18 08:38:35;;;;;;;4.70;3.67;;;19.80;99.90;;;;;;5056229;28;20167;-50
2023/09/18 08:41:00;;;;;;;4.72;3.30;;;19.80;99.90;;;;;;5055934;28;20175;-47
2023/09/18 08:43:28;;;;;;;8.60;3.47;;;19.80;99.90;;;;;;5056112;28;20179;-51
2023/09/18 08:45:57;;;;;;;7.40;3.67;;;19.90;99.90;;;;;;5055876;28;20261;-48
2023/09/18 08:48:24;;;;;;;5.00;3.60;;;19.80;99.90;;;;;;5055913;28;20648;-48
2023/09/18 08:50:51;;;;;;;5.25;3.35;;;19.80;99.90;;;;;;5055865;28;20174;-49
2023/09/18 08:53:17;;;;;;;4.95;3.47;;;19.70;99.90;;;;;;5055842;28;20720;-46
2023/09/18 08:55:42;;;;;;;6.20;3.97;;;19.70;99.90;;;;;;5055678;28;20274;-47
2023/09/18 08:58:08;;;;;;;7.40;3.63;;;19.60;99.90;;;;;;5055868;28;20179;-50
2023/09/18 09:00:37;;;;;;;8.20;3.65;;;19.60;99.90;;;;;;5055719;28;20175;-50
2023/09/18 09:03:04;;;;;;;6.95;3.97;;;19.50;99.90;;;;;;5055561;28;20595;-46
2023/09/18 09:05:30;;;;;;;7.13;3.70;;;19.50;99.90;;;;;;5055558;28;20205;-46
2023/09/18 09:08:01;;;;;;;4.85;3.75;;;19.40;99.90;;;;;;5055460;28;20228;-50
2023/09/18 09:10:26;;;;;;;9.43;4.38;;;19.40;99.90;;;;;;5055446;28;20182;-48
2023/09/18 09:12:58;;;;;;;6.18;4.35;;;19.40;99.90;;;;;;5054366;28;20480;-50
2023/09/18 09:15:47;;;;;;;9.38;4.85;;;19.40;99.90;;;;;;5055565;28;20182;-47
2023/09/18 09:18:16;;;;;;;9.60;4.60;;;19.40;99.90;;;;;;5055353;28;20163;-51
2023/09/18 09:20:59;;;;;;;7.55;4.50;;;19.40;99.90;;;;;;5054938;28;20253;-48
2023/09/18 09:23:27;;;;;;;5.35;4.85;;;19.50;99.90;;;;;;5055519;28;20160;-47
2023/09/18 09:25:54;;;;;;;7.35;5.75;;;19.50;99.90;;;;;;5054824;28;20298;-51
2023/09/18 09:28:30;;;;;;;7.25;5.95;;;19.40;99.90;;;;;;5055286;28;20179;-47
2023/09/18 09:31:03;;;;;;;6.03;5.43;;;19.40;99.90;;;;;;5055016;28;20214;-49
2023/09/18 09:33:32;;;;;;;6.78;5.45;;;19.40;99.90;;;;;;5054965;28;20171;-52
2023/09/18 09:35:58;;;;;;;6.43;5.63;;;19.40;99.90;;;;;;5055132;28;20191;-46
2023/09/18 09:38:33;;;;;;;7.93;6.25;;;19.40;99.90;;;;;;5055084;28;20191;-47
2023/09/18 09:41:06;;;;;;;6.93;6.28;;;19.60;99.90;;;;;;5054839;28;20171;-46
2023/09/18 09:43:33;;;;;;;6.30;5.68;;;19.60;99.90;;;;;;5054929;28;20187;-47
2023/09/18 09:46:02;;;;;;;6.78;6.10;;;19.70;99.90;;;;;;5054784;28;20210;-49
2023/09/18 09:48:32;;;;;;;6.93;5.68;;;19.80;99.90;;;;;;5053696;28;20712;-49
2023/09/18 09:51:00;;;;;;;8.05;5.45;;;19.80;99.90;;;;;;5054813;28;20191;-48
2023/09/18 09:53:50;;;;;;;5.65;5.03;;;20.00;99.90;;;;;;5053627;28;20183;-48
2023/09/18 09:56:21;;;;;;;7.07;4.72;;;20.00;99.90;;;;;;5054578;28;20528;-47
2023/09/18 09:59:07;;;;;;;6.78;5.25;;;19.90;99.90;;;;;;5054712;28;20233;-49
2023/09/18 10:01:34;;;;;;;7.93;5.22;;;20.00;99.90;;;;;;5054587;28;20167;-50
2023/09/18 10:04:04;;;;;;;5.90;5.13;;;19.80;99.90;;;;;;5054482;28;20171;-47
2023/09/18 10:06:34;;;;;;;8.57;4.93;;;19.90;99.90;;;;;;5054272;28;20203;-47
2023/09/18 10:09:02;;;;;;;5.85;5.10;;;19.80;99.90;;;;;;5054209;28;20579;-50
2023/09/18 10:11:30;;;;;;;7.30;4.82;;;19.70;99.90;;;;;;5054176;28;20187;-48
2023/09/18 10:14:04;;;;;;;5.10;4.60;;;19.80;99.90;;;;;;5054267;28;20590;-52
2023/09/18 10:16:31;;;;;;;7.57;5.25;;;19.80;99.90;;;;;;5054634;28;20181;-48
2023/09/18 10:19:11;;;;;;;7.00;5.70;;;19.70;99.90;;;;;;5054065;28;20163;-48
2023/09/18 10:21:42;;;;;;;6.60;5.32;;;19.60;99.90;;;;;;5054370;28;20536;-46
2023/09/18 10:24:30;;;;;;;10.18;5.80;;;19.50;99.90;;;;;;5054038;28;20644;-51
2023/09/18 10:26:58;;;;;;;8.45;5.78;;;19.60;99.90;;;;;;5054003;28;20278;-52
2023/09/18 10:29:25;;;;;;;9.60;6.88;;;19.60;99.90;;;;;;5053924;28;20533;-47
2023/09/18 10:31:53;;;;;;;9.82;7.18;;;19.70;99.90;;;;;;5053903;28;20221;-48
2023/09/18 10:34:19;;;;;;;10.13;6.63;;;19.80;99.90;;;;;;5054019;28;20211;-47
2023/09/18 10:36:49;;;;;;;7.63;6.40;;;20.00;99.90;;;;;;5053339;28;20528;-47
2023/09/18 10:39:19;;;;;;;7.18;5.80;;;19.90;99.90;;;;;;5054003;28;20175;-51
2023/09/18 10:41:48;;;;;;;7.05;6.35;;;20.00;99.90;;;;;;5053742;28;20184;-46
2023/09/18 10:44:15;;;;;;;7.45;6.43;;;20.10;99.90;;;;;;5053608;28;20181;-47
2023/09/18 10:46:41;;;;;;;6.68;5.93;;;20.20;99.90;;;;;;5053699;28;20214;-50
2023/09/18 10:49:07;;;;;;;8.93;6.32;;;20.10;99.90;;;;;;5053609;28;20648;-49
2023/09/18 10:51:33;;;;;;;6.47;5.53;;;20.20;99.90;;;;;;5053513;28;20206;-51
2023/09/18 10:54:00;;;;;;;6.57;5.32;;;20.50;99.90;;;;;;5053477;28;20203;-47
2023/09/18 10:56:26;;;;;;;5.80;4.40;;;20.80;99.90;;;;;;5053505;28;20175;-48
2023/09/18 10:58:59;;;;;;;7.57;3.75;;;21.20;99.90;;;;;;5053337;28;20237;-51
2023/09/18 11:01:27;;;;;;;7.55;3.47;;;21.10;99.90;;;;;;5053759;28;20260;-51
2023/09/18 11:03:59;;;;;;;3.17;2.90;;;21.00;99.90;;;;;;5053495;28;20170;-51
2023/09/18 11:06:26;;;;;;;4.18;2.80;;;20.80;99.90;;;;;;5053352;28;20206;-48
2023/09/18 11:09:01;;;;;;;4.32;2.60;;;20.70;99.90;;;;;;5053406;28;20202;-48
2023/09/18 11:11:29;;;;;;;4.35;3.05;;;20.60;99.90;;;;;;5053205;28;20176;-50
2023/09/18 11:13:59;;;;;;;4.22;2.80;;;20.60;99.90;;;;;;5053365;28;20536;-50
2023/09/18 11:16:28;;;;;;;3.55;2.83;;;20.50;99.90;;;;;;5053341;28;20174;-49
2023/09/18 11:19:00;;;;;;;3.90;2.58;;;20.50;99.90;;;;;;5053147;28;20206;-49
2023/09/18 11:21:30;;;;;;;4.20;2.70;;;20.60;99.90;;;;;;5053055;28;20202;-50
2023/09/18 11:24:11;;;;;;;4.30;2.40;;;20.80;99.90;;;;;;5053134;28;20493;-49
2023/09/18 11:26:41;;;;;;;3.15;2.33;;;20.70;99.90;;;;;;5053294;28;20210;-51
2023/09/18 11:29:10;;;;;;;6.07;3.03;;;20.80;99.90;;;;;;5053154;28;20510;-52
2023/09/18 11:31:43;;;;;;;4.70;2.78;;;21.00;99.90;;;;;;5053152;28;20254;-49
2023/09/18 11:34:21;;;;;;;3.80;2.58;;;21.30;99.90;;;;;;5052988;28;20184;-50
2023/09/18 11:36:46;;;;;;;5.28;2.70;;;21.50;99.90;;;;;;5053234;28;20258;-49
2023/09/18 11:39:13;;;;;;;3.35;2.42;;;21.60;99.90;;;;;;5053194;28;20175;-49
2023/09/18 11:41:39;;;;;;;5.25;2.67;;;21.70;99.90;;;;;;5053003;28;20278;-51
2023/09/18 11:44:28;;;;;;;4.07;2.63;;;21.50;99.90;;;;;;5052932;28;20191;-49
2023/09/18 11:46:55;;;;;;;4.03;2.38;;;21.50;99.90;;;;;;5049164;28;20214;-50
2023/09/18 11:49:22;;;;;;;3.75;2.50;;;21.60;99.90;;;;;;5055434;28;20529;-49
2023/09/18 11:51:50;;;;;;;4.18;2.38;;;21.60;99.90;;;;;;5057076;28;20175;-50
2023/09/18 11:54:17;;;;;;;3.33;2.65;;;21.90;99.90;;;;;;5056993;28;20250;-49
2023/09/18 11:56:44;;;;;;;3.70;2.70;;;22.10;99.90;;;;;;5056859;28;20175;-46
2023/09/18 11:59:10;;;;;;;2.95;2.25;;;22.10;99.90;;;;;;5056745;28;20210;-46
2023/09/18 12:01:39;;;;;;;3.80;2.40;;;22.10;99.90;;;;;;5055500;28;20184;-46
2023/09/18 12:04:09;;;;;;;4.03;2.78;;;22.00;99.90;;;;;;5056800;28;20256;-46
2023/09/18 12:06:39;;;;;;;5.05;2.45;;;22.20;99.90;;;;;;5056677;28;20203;-47
2023/09/18 12:09:06;;;;;;;3.20;2.22;;;22.30;99.90;;;;;;5055763;28;20179;-49
2023/09/18 12:11:37;;;;;;;4.18;2.47;;;22.40;99.90;;;;;;5056514;28;20214;-47
2023/09/18 12:14:04;;;;;;;2.90;2.05;;;22.50;99.90;;;;;;5056499;28;20587;-47
2023/09/18 12:16:30;;;;;;;3.38;2.40;;;22.60;99.90;;;;;;5056720;28;20171;-46
2023/09/18 12:18:56;;;;;;;3.33;2.03;;;22.80;99.90;;;;;;5056554;28;20225;-47
2023/09/18 12:21:23;;;;;;;5.38;2.38;;;22.90;99.90;;;;;;5056350;28;20226;-50
2023/09/18 12:23:50;;;;;;;5.10;2.50;;;22.90;99.90;;;;;;5056418;28;20179;-47
2023/09/18 12:26:18;;;;;;;4.82;2.47;;;22.70;99.90;;;;;;5056178;28;20213;-50
2023/09/18 12:28:45;;;;;;;4.75;2.30;;;22.60;99.90;;;;;;5056086;28;20206;-49
2023/09/18 12:31:15;;;;;;;5.30;2.50;;;22.60;99.90;;;;;;5056333;28;20567;-46
2023/09/18 12:33:43;;;;;;;3.13;2.30;;;22.50;99.90;;;;;;5056412;28;20558;-49
2023/09/18 12:36:09;;;;;;;5.68;2.65;;;22.20;99.90;;;;;;5056147;28;20226;-46
2023/09/18 12:38:36;;;;;;;2.30;2.10;;;22.20;99.90;;;;;;5056074;28;20174;-50
2023/09/18 12:41:09;;;;;;;4.03;2.40;;;22.30;99.90;;;;;;5055973;28;20643;-50
2023/09/18 12:43:42;;;;;;;2.90;2.15;;;22.50;99.90;;;;;;5055965;28;20632;-51
2023/09/18 12:46:09;;;;;;;5.60;2.28;;;22.50;99.90;;;;;;5055997;28;20271;-49
2023/09/18 12:48:38;;;;;;;4.35;2.40;;;22.50;99.90;;;;;;5056005;28;20211;-46